sensor_id;sensor_type;location;lat;lon;timestamp;P1;durP1;ratioP1;P2;durP2;ratioP2
34711;SDS011;20941;42.408;25.634;2023-10-19T00:02:06;9.88;;;5.45;;
34711;SDS011;20941;42.408;25.634;2023-10-19T00:04:32;10.48;;;5.80;;
34711;SDS011;20941;42.408;25.634;2023-10-19T00:07:01;11.95;;;6.78;;
34711;SDS011;20941;42.408;25.634;2023-10-19T00:09:29;6.75;;;5.20;;
34711;SDS011;20941;42.408;25.634;2023-10-19T00:12:01;10.45;;;6.53;;
34711;SDS011;20941;42.408;25.634;2023-10-19T00:14:27;13.05;;;7.13;;
34711;SDS011;20941;42.408;25.634;2023-10-19T00:16:52;12.45;;;6.70;;
34711;SDS011;20941;42.408;25.634;2023-10-19T00:19:21;10.80;;;7.10;;
34711;SDS011;20941;42.408;25.634;2023-10-19T00:21:47;13.45;;;8.07;;
34711;SDS011;20941;42.408;25.634;2023-10-19T00:24:19;14.43;;;9.30;;
34711;SDS011;20941;42.408;25.634;2023-10-19T00:26:47;14.18;;;8.70;;
34711;SDS011;20941;42.408;25.634;2023-10-19T00:29:13;13.27;;;8.20;;
34711;SDS011;20941;42.408;25.634;2023-10-19T00:31:58;10.38;;;6.40;;
34711;SDS011;20941;42.408;25.634;2023-10-19T00:34:24;12.60;;;8.98;;
34711;SDS011;20941;42.408;25.634;2023-10-19T00:36:50;14.73;;;9.52;;
34711;SDS011;20941;42.408;25.634;2023-10-19T00:39:16;13.63;;;8.98;;
34711;SDS011;20941;42.408;25.634;2023-10-19T00:41:46;16.38;;;9.70;;
34711;SDS011;20941;42.408;25.634;2023-10-19T00:44:12;17.60;;;9.35;;
34711;SDS011;20941;42.408;25.634;2023-10-19T00:46:41;18.48;;;9.73;;
34711;SDS011;20941;42.408;25.634;2023-10-19T00:49:07;17.95;;;9.73;;
34711;SDS011;20941;42.408;25.634;2023-10-19T00:51:46;14.77;;;9.20;;
34711;SDS011;20941;42.408;25.634;2023-10-19T00:54:34;15.68;;;9.35;;
34711;SDS011;20941;42.408;25.634;2023-10-19T00:57:05;12.98;;;8.25;;
34711;SDS011;20941;42.408;25.634;2023-10-19T00:59:36;14.45;;;7.95;;
34711;SDS011;20941;42.408;25.634;2023-10-19T01:02:08;12.73;;;7.80;;
34711;SDS011;20941;42.408;25.634;2023-10-19T01:04:44;11.63;;;7.10;;
34711;SDS011;20941;42.408;25.634;2023-10-19T01:07:11;12.45;;;6.93;;
34711;SDS011;20941;42.408;25.634;2023-10-19T01:09:40;9.35;;;6.03;;
34711;SDS011;20941;42.408;25.634;2023-10-19T01:12:09;6.70;;;4.28;;
34711;SDS011;20941;42.408;25.634;2023-10-19T01:15:13;9.82;;;4.28;;
34711;SDS011;20941;42.408;25.634;2023-10-19T01:17:42;6.90;;;4.13;;
34711;SDS011;20941;42.408;25.634;2023-10-19T01:20:12;14.50;;;6.22;;
34711;SDS011;20941;42.408;25.634;2023-10-19T01:22:57;16.67;;;11.45;;
34711;SDS011;20941;42.408;25.634;2023-10-19T01:28:01;23.40;;;14.15;;
34711;SDS011;20941;42.408;25.634;2023-10-19T01:30:32;22.80;;;14.88;;
34711;SDS011;20941;42.408;25.634;2023-10-19T01:32:58;18.80;;;11.23;;
34711;SDS011;20941;42.408;25.634;2023-10-19T01:35:23;16.60;;;10.20;;
34711;SDS011;20941;42.408;25.634;2023-10-19T01:37:49;17.40;;;9.05;;
34711;SDS011;20941;42.408;25.634;2023-10-19T01:40:14;19.02;;;9.00;;
34711;SDS011;20941;42.408;25.634;2023-10-19T01:42:45;8.40;;;5.03;;
34711;SDS011;20941;42.408;25.634;2023-10-19T01:45:11;5.57;;;3.92;;
34711;SDS011;20941;42.408;25.634;2023-10-19T01:47:36;10.43;;;3.38;;
34711;SDS011;20941;42.408;25.634;2023-10-19T01:50:02;5.85;;;3.75;;
34711;SDS011;20941;42.408;25.634;2023-10-19T01:52:30;6.72;;;4.20;;
34711;SDS011;20941;42.408;25.634;2023-10-19T01:54:56;12.48;;;5.97;;
34711;SDS011;20941;42.408;25.634;2023-10-19T01:57:27;13.27;;;8.57;;
34711;SDS011;20941;42.408;25.634;2023-10-19T01:59:53;15.27;;;10.18;;
34711;SDS011;20941;42.408;25.634;2023-10-19T02:02:18;18.80;;;9.85;;
34711;SDS011;20941;42.408;25.634;2023-10-19T02:04:46;16.38;;;8.45;;
34711;SDS011;20941;42.408;25.634;2023-10-19T02:07:14;14.25;;;6.80;;
34711;SDS011;20941;42.408;25.634;2023-10-19T02:09:43;26.13;;;13.07;;
34711;SDS011;20941;42.408;25.634;2023-10-19T02:12:08;10.60;;;7.00;;
34711;SDS011;20941;42.408;25.634;2023-10-19T02:14:34;10.93;;;4.75;;
34711;SDS011;20941;42.408;25.634;2023-10-19T02:16:59;6.63;;;4.57;;
34711;SDS011;20941;42.408;25.634;2023-10-19T02:19:26;5.93;;;3.60;;
34711;SDS011;20941;42.408;25.634;2023-10-19T02:21:55;15.65;;;6.72;;
34711;SDS011;20941;42.408;25.634;2023-10-19T02:24:23;37.15;;;20.58;;
34711;SDS011;20941;42.408;25.634;2023-10-19T02:26:51;38.92;;;22.42;;
34711;SDS011;20941;42.408;25.634;2023-10-19T02:29:17;36.42;;;19.05;;
34711;SDS011;20941;42.408;25.634;2023-10-19T02:31:44;32.25;;;20.30;;
34711;SDS011;20941;42.408;25.634;2023-10-19T02:34:11;16.63;;;9.77;;
34711;SDS011;20941;42.408;25.634;2023-10-19T02:36:37;15.88;;;12.07;;
34711;SDS011;20941;42.408;25.634;2023-10-19T02:39:04;16.70;;;10.60;;
34711;SDS011;20941;42.408;25.634;2023-10-19T02:44:01;17.08;;;6.13;;
34711;SDS011;20941;42.408;25.634;2023-10-19T02:46:28;67.38;;;41.92;;
34711;SDS011;20941;42.408;25.634;2023-10-19T02:48:54;79.25;;;50.63;;
34711;SDS011;20941;42.408;25.634;2023-10-19T02:51:19;88.40;;;54.15;;
34711;SDS011;20941;42.408;25.634;2023-10-19T02:53:45;35.15;;;21.00;;
34711;SDS011;20941;42.408;25.634;2023-10-19T02:56:14;37.67;;;22.13;;
34711;SDS011;20941;42.408;25.634;2023-10-19T02:58:44;14.40;;;10.38;;
34711;SDS011;20941;42.408;25.634;2023-10-19T03:01:20;8.27;;;5.88;;
34711;SDS011;20941;42.408;25.634;2023-10-19T03:03:52;10.07;;;6.28;;
34711;SDS011;20941;42.408;25.634;2023-10-19T03:06:21;8.57;;;4.47;;
34711;SDS011;20941;42.408;25.634;2023-10-19T03:08:47;41.10;;;23.95;;
34711;SDS011;20941;42.408;25.634;2023-10-19T03:11:13;59.33;;;33.70;;
34711;SDS011;20941;42.408;25.634;2023-10-19T03:13:39;57.50;;;33.10;;
34711;SDS011;20941;42.408;25.634;2023-10-19T03:16:06;79.13;;;42.60;;
34711;SDS011;20941;42.408;25.634;2023-10-19T03:18:33;61.28;;;37.17;;
34711;SDS011;20941;42.408;25.634;2023-10-19T03:20:58;71.07;;;38.80;;
34711;SDS011;20941;42.408;25.634;2023-10-19T03:23:23;73.97;;;42.75;;
34711;SDS011;20941;42.408;25.634;2023-10-19T03:25:53;58.05;;;29.48;;
34711;SDS011;20941;42.408;25.634;2023-10-19T03:28:37;40.20;;;20.92;;
34711;SDS011;20941;42.408;25.634;2023-10-19T03:31:03;40.55;;;19.95;;
34711;SDS011;20941;42.408;25.634;2023-10-19T03:33:29;29.27;;;16.92;;
34711;SDS011;20941;42.408;25.634;2023-10-19T03:35:55;38.38;;;15.73;;
34711;SDS011;20941;42.408;25.634;2023-10-19T03:38:20;27.38;;;13.52;;
34711;SDS011;20941;42.408;25.634;2023-10-19T03:40:48;19.02;;;8.77;;
34711;SDS011;20941;42.408;25.634;2023-10-19T03:43:24;19.40;;;7.75;;
34711;SDS011;20941;42.408;25.634;2023-10-19T03:45:52;19.38;;;5.78;;
34711;SDS011;20941;42.408;25.634;2023-10-19T03:48:21;8.95;;;5.57;;
34711;SDS011;20941;42.408;25.634;2023-10-19T03:50:52;12.27;;;5.10;;
34711;SDS011;20941;42.408;25.634;2023-10-19T03:53:18;8.90;;;5.38;;
34711;SDS011;20941;42.408;25.634;2023-10-19T03:55:46;11.65;;;5.43;;
34711;SDS011;20941;42.408;25.634;2023-10-19T03:58:12;21.67;;;6.85;;
34711;SDS011;20941;42.408;25.634;2023-10-19T04:00:37;21.52;;;7.22;;
34711;SDS011;20941;42.408;25.634;2023-10-19T04:03:03;28.67;;;7.05;;
34711;SDS011;20941;42.408;25.634;2023-10-19T04:05:29;15.25;;;7.20;;
34711;SDS011;20941;42.408;25.634;2023-10-19T04:07:56;31.45;;;9.98;;
34711;SDS011;20941;42.408;25.634;2023-10-19T04:10:22;22.05;;;9.35;;
34711;SDS011;20941;42.408;25.634;2023-10-19T04:13:04;32.25;;;15.48;;
34711;SDS011;20941;42.408;25.634;2023-10-19T04:15:30;47.85;;;19.60;;
34711;SDS011;20941;42.408;25.634;2023-10-19T04:17:58;18.33;;;7.68;;
34711;SDS011;20941;42.408;25.634;2023-10-19T04:20:25;17.08;;;7.38;;
34711;SDS011;20941;42.408;25.634;2023-10-19T04:22:50;28.67;;;11.18;;
34711;SDS011;20941;42.408;25.634;2023-10-19T04:25:17;38.63;;;11.45;;
34711;SDS011;20941;42.408;25.634;2023-10-19T04:27:44;30.52;;;11.10;;
34711;SDS011;20941;42.408;25.634;2023-10-19T04:30:09;30.27;;;11.20;;
34711;SDS011;20941;42.408;25.634;2023-10-19T04:32:41;29.55;;;10.77;;
34711;SDS011;20941;42.408;25.634;2023-10-19T04:35:06;26.25;;;9.65;;
34711;SDS011;20941;42.408;25.634;2023-10-19T04:37:34;30.77;;;10.57;;
34711;SDS011;20941;42.408;25.634;2023-10-19T04:39:59;27.60;;;10.98;;
34711;SDS011;20941;42.408;25.634;2023-10-19T04:42:26;31.08;;;11.27;;
34711;SDS011;20941;42.408;25.634;2023-10-19T04:44:52;29.27;;;11.63;;
34711;SDS011;20941;42.408;25.634;2023-10-19T04:47:19;33.42;;;14.93;;
34711;SDS011;20941;42.408;25.634;2023-10-19T04:49:44;37.10;;;13.35;;
34711;SDS011;20941;42.408;25.634;2023-10-19T04:52:09;31.98;;;15.02;;
34711;SDS011;20941;42.408;25.634;2023-10-19T04:54:35;37.35;;;15.73;;
34711;SDS011;20941;42.408;25.634;2023-10-19T04:57:02;33.97;;;14.80;;
34711;SDS011;20941;42.408;25.634;2023-10-19T04:59:28;33.03;;;13.60;;
34711;SDS011;20941;42.408;25.634;2023-10-19T05:01:58;36.75;;;13.45;;
34711;SDS011;20941;42.408;25.634;2023-10-19T05:04:23;41.85;;;16.38;;
34711;SDS011;20941;42.408;25.634;2023-10-19T05:06:49;23.98;;;12.00;;
34711;SDS011;20941;42.408;25.634;2023-10-19T05:09:14;24.55;;;12.68;;
34711;SDS011;20941;42.408;25.634;2023-10-19T05:11:40;29.02;;;13.30;;
34711;SDS011;20941;42.408;25.634;2023-10-19T05:14:05;33.97;;;13.77;;
34711;SDS011;20941;42.408;25.634;2023-10-19T05:16:31;34.80;;;12.15;;
34711;SDS011;20941;42.408;25.634;2023-10-19T05:18:56;43.28;;;19.50;;
34711;SDS011;20941;42.408;25.634;2023-10-19T05:21:21;33.78;;;14.05;;
34711;SDS011;20941;42.408;25.634;2023-10-19T05:23:47;30.77;;;13.35;;
34711;SDS011;20941;42.408;25.634;2023-10-19T05:26:13;32.00;;;13.65;;
34711;SDS011;20941;42.408;25.634;2023-10-19T05:28:40;34.63;;;13.93;;
34711;SDS011;20941;42.408;25.634;2023-10-19T05:31:07;25.70;;;13.02;;
34711;SDS011;20941;42.408;25.634;2023-10-19T05:33:33;26.30;;;14.45;;
34711;SDS011;20941;42.408;25.634;2023-10-19T05:35:58;32.20;;;15.68;;
34711;SDS011;20941;42.408;25.634;2023-10-19T05:38:26;21.98;;;10.63;;
34711;SDS011;20941;42.408;25.634;2023-10-19T05:40:52;22.27;;;9.45;;
34711;SDS011;20941;42.408;25.634;2023-10-19T05:43:17;28.13;;;12.05;;
34711;SDS011;20941;42.408;25.634;2023-10-19T05:45:43;36.22;;;16.65;;
34711;SDS011;20941;42.408;25.634;2023-10-19T05:48:08;34.63;;;14.25;;
34711;SDS011;20941;42.408;25.634;2023-10-19T05:50:34;22.50;;;12.52;;
34711;SDS011;20941;42.408;25.634;2023-10-19T05:53:00;32.45;;;12.90;;
34711;SDS011;20941;42.408;25.634;2023-10-19T05:55:25;24.48;;;11.48;;
34711;SDS011;20941;42.408;25.634;2023-10-19T05:57:51;25.15;;;10.65;;
34711;SDS011;20941;42.408;25.634;2023-10-19T06:00:16;23.75;;;10.50;;
34711;SDS011;20941;42.408;25.634;2023-10-19T06:02:43;20.52;;;9.35;;
34711;SDS011;20941;42.408;25.634;2023-10-19T06:05:09;25.02;;;10.70;;
34711;SDS011;20941;42.408;25.634;2023-10-19T06:07:35;22.60;;;10.70;;
34711;SDS011;20941;42.408;25.634;2023-10-19T06:10:01;30.02;;;12.25;;
34711;SDS011;20941;42.408;25.634;2023-10-19T06:12:30;27.13;;;11.40;;
34711;SDS011;20941;42.408;25.634;2023-10-19T06:14:55;21.85;;;10.10;;
34711;SDS011;20941;42.408;25.634;2023-10-19T06:17:21;35.90;;;14.75;;
34711;SDS011;20941;42.408;25.634;2023-10-19T06:19:46;45.33;;;17.30;;
34711;SDS011;20941;42.408;25.634;2023-10-19T06:22:12;33.08;;;14.50;;
34711;SDS011;20941;42.408;25.634;2023-10-19T06:24:37;38.50;;;14.85;;
34711;SDS011;20941;42.408;25.634;2023-10-19T06:27:03;29.48;;;14.43;;
34711;SDS011;20941;42.408;25.634;2023-10-19T06:29:29;32.88;;;12.48;;
34711;SDS011;20941;42.408;25.634;2023-10-19T06:31:54;23.98;;;11.43;;
34711;SDS011;20941;42.408;25.634;2023-10-19T06:34:20;38.20;;;11.50;;
34711;SDS011;20941;42.408;25.634;2023-10-19T06:36:45;27.40;;;11.30;;
34711;SDS011;20941;42.408;25.634;2023-10-19T06:39:11;33.70;;;11.10;;
34711;SDS011;20941;42.408;25.634;2023-10-19T06:41:38;21.88;;;6.82;;
34711;SDS011;20941;42.408;25.634;2023-10-19T06:44:05;12.85;;;5.70;;
34711;SDS011;20941;42.408;25.634;2023-10-19T06:46:31;18.50;;;6.18;;
34711;SDS011;20941;42.408;25.634;2023-10-19T06:48:56;13.13;;;5.78;;
34711;SDS011;20941;42.408;25.634;2023-10-19T06:51:25;11.75;;;4.60;;
34711;SDS011;20941;42.408;25.634;2023-10-19T06:53:51;16.90;;;6.28;;
34711;SDS011;20941;42.408;25.634;2023-10-19T06:56:17;13.75;;;4.60;;
34711;SDS011;20941;42.408;25.634;2023-10-19T06:58:42;13.93;;;5.53;;
34711;SDS011;20941;42.408;25.634;2023-10-19T07:01:08;10.85;;;4.38;;
34711;SDS011;20941;42.408;25.634;2023-10-19T07:03:33;17.73;;;5.55;;
34711;SDS011;20941;42.408;25.634;2023-10-19T07:05:59;16.27;;;5.60;;
34711;SDS011;20941;42.408;25.634;2023-10-19T07:08:25;12.50;;;3.95;;
34711;SDS011;20941;42.408;25.634;2023-10-19T07:10:52;33.92;;;9.02;;
34711;SDS011;20941;42.408;25.634;2023-10-19T07:13:18;10.63;;;3.92;;
34711;SDS011;20941;42.408;25.634;2023-10-19T07:15:45;9.80;;;3.72;;
34711;SDS011;20941;42.408;25.634;2023-10-19T07:18:11;14.63;;;4.72;;
34711;SDS011;20941;42.408;25.634;2023-10-19T07:20:36;13.60;;;4.82;;
34711;SDS011;20941;42.408;25.634;2023-10-19T07:23:03;10.23;;;3.97;;
34711;SDS011;20941;42.408;25.634;2023-10-19T07:25:48;11.40;;;4.95;;
34711;SDS011;20941;42.408;25.634;2023-10-19T07:28:18;7.82;;;3.83;;
34711;SDS011;20941;42.408;25.634;2023-10-19T07:30:44;8.57;;;3.95;;
34711;SDS011;20941;42.408;25.634;2023-10-19T07:33:11;18.05;;;6.05;;
34711;SDS011;20941;42.408;25.634;2023-10-19T07:35:42;12.05;;;5.97;;
34711;SDS011;20941;42.408;25.634;2023-10-19T07:38:09;10.65;;;5.70;;
34711;SDS011;20941;42.408;25.634;2023-10-19T07:40:34;10.43;;;5.78;;
34711;SDS011;20941;42.408;25.634;2023-10-19T07:43:00;14.93;;;6.82;;
34711;SDS011;20941;42.408;25.634;2023-10-19T07:45:25;23.65;;;9.10;;
34711;SDS011;20941;42.408;25.634;2023-10-19T07:47:51;16.58;;;6.97;;
34711;SDS011;20941;42.408;25.634;2023-10-19T07:50:16;16.15;;;6.35;;
34711;SDS011;20941;42.408;25.634;2023-10-19T07:52:49;13.15;;;5.60;;
34711;SDS011;20941;42.408;25.634;2023-10-19T07:55:15;14.02;;;5.70;;
34711;SDS011;20941;42.408;25.634;2023-10-19T07:57:41;12.88;;;5.43;;
34711;SDS011;20941;42.408;25.634;2023-10-19T08:00:07;16.55;;;5.72;;
34711;SDS011;20941;42.408;25.634;2023-10-19T08:02:34;17.45;;;6.05;;
34711;SDS011;20941;42.408;25.634;2023-10-19T08:05:00;18.70;;;6.43;;
34711;SDS011;20941;42.408;25.634;2023-10-19T08:07:27;9.07;;;5.53;;
34711;SDS011;20941;42.408;25.634;2023-10-19T08:09:53;9.82;;;5.60;;
34711;SDS011;20941;42.408;25.634;2023-10-19T08:12:19;9.63;;;5.50;;
34711;SDS011;20941;42.408;25.634;2023-10-19T08:14:45;10.98;;;6.05;;
34711;SDS011;20941;42.408;25.634;2023-10-19T08:17:11;17.33;;;7.35;;
34711;SDS011;20941;42.408;25.634;2023-10-19T08:19:37;16.55;;;7.03;;
34711;SDS011;20941;42.408;25.634;2023-10-19T08:22:03;16.02;;;7.07;;
34711;SDS011;20941;42.408;25.634;2023-10-19T08:24:30;22.17;;;7.43;;
34711;SDS011;20941;42.408;25.634;2023-10-19T08:26:55;22.33;;;8.02;;
34711;SDS011;20941;42.408;25.634;2023-10-19T08:29:21;22.52;;;7.35;;
34711;SDS011;20941;42.408;25.634;2023-10-19T08:31:46;15.35;;;7.28;;
34711;SDS011;20941;42.408;25.634;2023-10-19T08:34:12;23.08;;;7.28;;
34711;SDS011;20941;42.408;25.634;2023-10-19T08:36:38;30.05;;;10.57;;
34711;SDS011;20941;42.408;25.634;2023-10-19T08:39:07;17.25;;;7.95;;
34711;SDS011;20941;42.408;25.634;2023-10-19T08:41:34;16.63;;;8.40;;
34711;SDS011;20941;42.408;25.634;2023-10-19T08:44:00;14.60;;;8.65;;
34711;SDS011;20941;42.408;25.634;2023-10-19T08:46:26;18.98;;;9.32;;
34711;SDS011;20941;42.408;25.634;2023-10-19T08:48:56;23.33;;;9.77;;
34711;SDS011;20941;42.408;25.634;2023-10-19T08:51:24;20.20;;;10.63;;
34711;SDS011;20941;42.408;25.634;2023-10-19T08:53:52;18.23;;;10.27;;
34711;SDS011;20941;42.408;25.634;2023-10-19T08:56:18;19.63;;;9.93;;
34711;SDS011;20941;42.408;25.634;2023-10-19T08:58:44;25.80;;;11.45;;
34711;SDS011;20941;42.408;25.634;2023-10-19T09:01:11;19.65;;;11.63;;
34711;SDS011;20941;42.408;25.634;2023-10-19T09:03:37;21.05;;;11.95;;
34711;SDS011;20941;42.408;25.634;2023-10-19T09:06:03;20.98;;;11.23;;
34711;SDS011;20941;42.408;25.634;2023-10-19T09:08:30;22.50;;;12.30;;
34711;SDS011;20941;42.408;25.634;2023-10-19T09:11:06;20.10;;;11.45;;
34711;SDS011;20941;42.408;25.634;2023-10-19T09:13:49;21.02;;;12.88;;
34711;SDS011;20941;42.408;25.634;2023-10-19T09:16:15;28.30;;;12.88;;
34711;SDS011;20941;42.408;25.634;2023-10-19T09:18:41;24.92;;;13.75;;
34711;SDS011;20941;42.408;25.634;2023-10-19T09:21:07;21.25;;;13.52;;
34711;SDS011;20941;42.408;25.634;2023-10-19T09:23:36;23.88;;;13.40;;
34711;SDS011;20941;42.408;25.634;2023-10-19T09:26:02;27.17;;;13.30;;
34711;SDS011;20941;42.408;25.634;2023-10-19T09:28:34;28.63;;;13.80;;
34711;SDS011;20941;42.408;25.634;2023-10-19T09:30:59;21.50;;;12.77;;
34711;SDS011;20941;42.408;25.634;2023-10-19T09:33:25;24.38;;;14.35;;
34711;SDS011;20941;42.408;25.634;2023-10-19T09:35:51;21.13;;;13.45;;
34711;SDS011;20941;42.408;25.634;2023-10-19T09:38:22;27.63;;;16.50;;
34711;SDS011;20941;42.408;25.634;2023-10-19T09:40:50;25.85;;;14.98;;
34711;SDS011;20941;42.408;25.634;2023-10-19T09:43:15;28.55;;;14.18;;
34711;SDS011;20941;42.408;25.634;2023-10-19T09:45:42;25.77;;;13.57;;
34711;SDS011;20941;42.408;25.634;2023-10-19T09:48:18;26.08;;;13.52;;
34711;SDS011;20941;42.408;25.634;2023-10-19T09:50:45;25.92;;;13.85;;
34711;SDS011;20941;42.408;25.634;2023-10-19T09:53:17;24.85;;;15.18;;
34711;SDS011;20941;42.408;25.634;2023-10-19T09:55:43;25.30;;;13.23;;
34711;SDS011;20941;42.408;25.634;2023-10-19T09:58:17;26.05;;;14.85;;
34711;SDS011;20941;42.408;25.634;2023-10-19T10:00:45;28.02;;;14.45;;
34711;SDS011;20941;42.408;25.634;2023-10-19T10:05:54;25.02;;;13.63;;
34711;SDS011;20941;42.408;25.634;2023-10-19T10:10:48;28.10;;;15.77;;
34711;SDS011;20941;42.408;25.634;2023-10-19T10:15:56;23.30;;;14.43;;
34711;SDS011;20941;42.408;25.634;2023-10-19T10:18:24;26.05;;;13.38;;
34711;SDS011;20941;42.408;25.634;2023-10-19T10:21:23;24.55;;;13.35;;
34711;SDS011;20941;42.408;25.634;2023-10-19T10:23:49;22.40;;;13.38;;
34711;SDS011;20941;42.408;25.634;2023-10-19T10:26:15;23.10;;;13.30;;
34711;SDS011;20941;42.408;25.634;2023-10-19T10:28:41;25.10;;;13.13;;
34711;SDS011;20941;42.408;25.634;2023-10-19T10:33:48;21.35;;;11.45;;
34711;SDS011;20941;42.408;25.634;2023-10-19T10:36:15;16.77;;;9.65;;
34711;SDS011;20941;42.408;25.634;2023-10-19T10:38:42;24.75;;;12.90;;
34711;SDS011;20941;42.408;25.634;2023-10-19T10:41:08;22.85;;;13.75;;
34711;SDS011;20941;42.408;25.634;2023-10-19T10:43:47;25.55;;;13.30;;
34711;SDS011;20941;42.408;25.634;2023-10-19T10:46:13;20.48;;;11.50;;
34711;SDS011;20941;42.408;25.634;2023-10-19T10:48:42;21.55;;;11.70;;
34711;SDS011;20941;42.408;25.634;2023-10-19T10:51:14;16.95;;;10.98;;
34711;SDS011;20941;42.408;25.634;2023-10-19T10:53:40;19.52;;;10.63;;
34711;SDS011;20941;42.408;25.634;2023-10-19T10:56:06;21.75;;;11.23;;
34711;SDS011;20941;42.408;25.634;2023-10-19T10:58:34;20.17;;;11.13;;
34711;SDS011;20941;42.408;25.634;2023-10-19T11:00:59;18.17;;;10.90;;
34711;SDS011;20941;42.408;25.634;2023-10-19T11:03:25;24.02;;;11.68;;
34711;SDS011;20941;42.408;25.634;2023-10-19T11:05:55;14.95;;;10.45;;
34711;SDS011;20941;42.408;25.634;2023-10-19T11:08:20;19.05;;;11.02;;
34711;SDS011;20941;42.408;25.634;2023-10-19T11:10:49;16.38;;;10.82;;
34711;SDS011;20941;42.408;25.634;2023-10-19T11:13:16;17.88;;;10.98;;
34711;SDS011;20941;42.408;25.634;2023-10-19T11:15:48;19.38;;;12.70;;
34711;SDS011;20941;42.408;25.634;2023-10-19T11:21:01;17.75;;;11.05;;
34711;SDS011;20941;42.408;25.634;2023-10-19T11:23:43;17.10;;;10.40;;
34711;SDS011;20941;42.408;25.634;2023-10-19T11:26:09;19.15;;;10.45;;
34711;SDS011;20941;42.408;25.634;2023-10-19T11:28:35;18.73;;;11.50;;
34711;SDS011;20941;42.408;25.634;2023-10-19T11:31:14;17.83;;;10.25;;
34711;SDS011;20941;42.408;25.634;2023-10-19T11:33:40;15.95;;;10.30;;
34711;SDS011;20941;42.408;25.634;2023-10-19T11:36:06;16.25;;;9.63;;
34711;SDS011;20941;42.408;25.634;2023-10-19T11:38:32;15.30;;;9.30;;
34711;SDS011;20941;42.408;25.634;2023-10-19T11:40:57;21.67;;;10.40;;
34711;SDS011;20941;42.408;25.634;2023-10-19T11:43:23;18.60;;;10.02;;
34711;SDS011;20941;42.408;25.634;2023-10-19T11:45:48;15.10;;;8.60;;
34711;SDS011;20941;42.408;25.634;2023-10-19T11:48:17;21.45;;;11.10;;
34711;SDS011;20941;42.408;25.634;2023-10-19T11:50:42;23.00;;;12.38;;
34711;SDS011;20941;42.408;25.634;2023-10-19T11:53:07;14.13;;;9.98;;
34711;SDS011;20941;42.408;25.634;2023-10-19T11:55:51;15.30;;;9.88;;
34711;SDS011;20941;42.408;25.634;2023-10-19T11:58:17;21.45;;;10.27;;
34711;SDS011;20941;42.408;25.634;2023-10-19T12:00:42;17.02;;;9.90;;
34711;SDS011;20941;42.408;25.634;2023-10-19T12:03:12;13.55;;;9.23;;
34711;SDS011;20941;42.408;25.634;2023-10-19T12:05:37;18.35;;;10.00;;
34711;SDS011;20941;42.408;25.634;2023-10-19T12:08:03;16.08;;;8.45;;
34711;SDS011;20941;42.408;25.634;2023-10-19T12:10:28;17.08;;;9.27;;
34711;SDS011;20941;42.408;25.634;2023-10-19T12:13:06;10.25;;;7.78;;
34711;SDS011;20941;42.408;25.634;2023-10-19T12:15:32;18.33;;;9.25;;
34711;SDS011;20941;42.408;25.634;2023-10-19T12:17:59;14.20;;;8.18;;
34711;SDS011;20941;42.408;25.634;2023-10-19T12:20:25;19.33;;;10.85;;
34711;SDS011;20941;42.408;25.634;2023-10-19T12:22:51;11.43;;;8.38;;
34711;SDS011;20941;42.408;25.634;2023-10-19T12:25:19;14.70;;;8.73;;
34711;SDS011;20941;42.408;25.634;2023-10-19T12:27:44;18.80;;;9.27;;
34711;SDS011;20941;42.408;25.634;2023-10-19T12:30:10;12.93;;;8.25;;
34711;SDS011;20941;42.408;25.634;2023-10-19T12:32:47;13.38;;;7.75;;
34711;SDS011;20941;42.408;25.634;2023-10-19T12:35:14;10.25;;;7.00;;
34711;SDS011;20941;42.408;25.634;2023-10-19T12:37:40;12.45;;;8.23;;
34711;SDS011;20941;42.408;25.634;2023-10-19T12:40:14;11.23;;;7.90;;
34711;SDS011;20941;42.408;25.634;2023-10-19T12:42:52;11.50;;;7.03;;
34711;SDS011;20941;42.408;25.634;2023-10-19T12:45:20;12.13;;;6.80;;
34711;SDS011;20941;42.408;25.634;2023-10-19T12:47:45;10.75;;;6.28;;
34711;SDS011;20941;42.408;25.634;2023-10-19T12:50:10;13.80;;;6.95;;
34711;SDS011;20941;42.408;25.634;2023-10-19T12:52:38;19.67;;;7.70;;
34711;SDS011;20941;42.408;25.634;2023-10-19T12:55:05;11.80;;;7.00;;
34711;SDS011;20941;42.408;25.634;2023-10-19T12:57:31;9.35;;;6.50;;
34711;SDS011;20941;42.408;25.634;2023-10-19T12:59:59;15.15;;;7.78;;
34711;SDS011;20941;42.408;25.634;2023-10-19T13:02:47;12.25;;;7.22;;
34711;SDS011;20941;42.408;25.634;2023-10-19T13:05:13;11.40;;;7.90;;
34711;SDS011;20941;42.408;25.634;2023-10-19T13:07:41;12.55;;;7.38;;
34711;SDS011;20941;42.408;25.634;2023-10-19T13:10:06;15.85;;;8.63;;
34711;SDS011;20941;42.408;25.634;2023-10-19T13:12:32;17.00;;;8.07;;
34711;SDS011;20941;42.408;25.634;2023-10-19T13:14:58;13.02;;;6.90;;
34711;SDS011;20941;42.408;25.634;2023-10-19T13:17:24;13.07;;;7.90;;
34711;SDS011;20941;42.408;25.634;2023-10-19T13:19:50;11.55;;;7.75;;
34711;SDS011;20941;42.408;25.634;2023-10-19T13:22:20;9.63;;;6.97;;
34711;SDS011;20941;42.408;25.634;2023-10-19T13:24:46;9.50;;;6.47;;
34711;SDS011;20941;42.408;25.634;2023-10-19T13:27:12;11.77;;;7.43;;
34711;SDS011;20941;42.408;25.634;2023-10-19T13:29:37;8.50;;;7.22;;
34711;SDS011;20941;42.408;25.634;2023-10-19T13:32:05;16.10;;;8.40;;
34711;SDS011;20941;42.408;25.634;2023-10-19T13:34:30;17.58;;;8.43;;
34711;SDS011;20941;42.408;25.634;2023-10-19T13:36:56;15.77;;;7.82;;
34711;SDS011;20941;42.408;25.634;2023-10-19T13:39:22;16.00;;;8.30;;
34711;SDS011;20941;42.408;25.634;2023-10-19T13:41:53;16.10;;;7.35;;
34711;SDS011;20941;42.408;25.634;2023-10-19T13:44:18;18.42;;;7.90;;
34711;SDS011;20941;42.408;25.634;2023-10-19T13:46:46;16.65;;;7.00;;
34711;SDS011;20941;42.408;25.634;2023-10-19T13:49:11;13.15;;;7.53;;
34711;SDS011;20941;42.408;25.634;2023-10-19T13:51:36;17.10;;;6.97;;
34711;SDS011;20941;42.408;25.634;2023-10-19T13:54:02;9.18;;;5.60;;
34711;SDS011;20941;42.408;25.634;2023-10-19T13:56:27;12.48;;;6.93;;
34711;SDS011;20941;42.408;25.634;2023-10-19T13:58:53;9.70;;;5.20;;
34711;SDS011;20941;42.408;25.634;2023-10-19T14:01:19;15.13;;;6.00;;
34711;SDS011;20941;42.408;25.634;2023-10-19T14:03:50;12.73;;;7.03;;
34711;SDS011;20941;42.408;25.634;2023-10-19T14:06:16;12.95;;;7.05;;
34711;SDS011;20941;42.408;25.634;2023-10-19T14:08:42;11.40;;;5.90;;
34711;SDS011;20941;42.408;25.634;2023-10-19T14:11:07;10.65;;;6.53;;
34711;SDS011;20941;42.408;25.634;2023-10-19T14:13:33;11.30;;;6.25;;
34711;SDS011;20941;42.408;25.634;2023-10-19T14:15:58;12.10;;;5.85;;
34711;SDS011;20941;42.408;25.634;2023-10-19T14:18:24;17.33;;;7.30;;
34711;SDS011;20941;42.408;25.634;2023-10-19T14:20:49;14.48;;;5.97;;
34711;SDS011;20941;42.408;25.634;2023-10-19T14:23:15;13.55;;;6.00;;
34711;SDS011;20941;42.408;25.634;2023-10-19T14:25:40;10.10;;;5.95;;
34711;SDS011;20941;42.408;25.634;2023-10-19T14:28:07;14.32;;;5.82;;
34711;SDS011;20941;42.408;25.634;2023-10-19T14:30:36;10.32;;;5.35;;
34711;SDS011;20941;42.408;25.634;2023-10-19T14:33:01;10.55;;;5.20;;
34711;SDS011;20941;42.408;25.634;2023-10-19T14:35:27;5.53;;;4.75;;
34711;SDS011;20941;42.408;25.634;2023-10-19T14:37:53;9.63;;;5.47;;